KLM125 EHAM-EDDF
Flight info
| Callsign | KLM125 |
|---|---|
| Flight time | N/A |
| Altitude | 33000 |
| Route | EDUPO Z739 MISGO DCT DIXAT DIXAT1D |
| Aircraft | B742/H-SDFHIRWXY/LB2 |
Departure
| Time | 2026-04-30 15:13 |
|---|---|
| Airport | Amsterdam Airport Schiphol (EHAM) |
Arrival
| Time | N/A |
|---|---|
| Airport | Frankfurt Main Airport (EDDF) |
| Time | Latitude | Longitude | Altitude | Speed | Heading |
|---|---|---|---|---|---|
| 2026-04-30 14:56 | 52.31371 | 4.76171 | 0 ft | 0 kts | 178° |
| 2026-04-30 15:03 | 52.31383 | 4.76171 | 0 ft | 2 kts | 178° |
| 2026-04-30 15:03 | 52.31413 | 4.76171 | 0 ft | 2 kts | 194° |
| 2026-04-30 15:04 | 52.31439 | 4.76194 | 0 ft | 2 kts | 224° |
| 2026-04-30 15:04 | 52.31458 | 4.76254 | 0 ft | 0 kts | 265° |
| 2026-04-30 15:05 | 52.31460 | 4.76275 | 0 ft | 0 kts | 266° |
| 2026-04-30 15:08 | 52.31459 | 4.76241 | 0 ft | 9 kts | 266° |
| 2026-04-30 15:08 | 52.31433 | 4.75658 | 0 ft | 17 kts | 268° |
| 2026-04-30 15:09 | 52.31421 | 4.75239 | 0 ft | 19 kts | 268° |
| 2026-04-30 15:09 | 52.31407 | 4.74786 | 0 ft | 17 kts | 266° |
| 2026-04-30 15:10 | 52.31499 | 4.74646 | 0 ft | 6 kts | 9° |
| 2026-04-30 15:11 | 52.31668 | 4.74807 | 0 ft | 0 kts | 87° |
| 2026-04-30 15:11 | 52.31668 | 4.74811 | 0 ft | 3 kts | 87° |
| 2026-04-30 15:12 | 52.31768 | 4.77871 | 344 ft | 159 kts | 89° |
| 2026-04-30 15:13 | 52.31962 | 4.81479 | 1854 ft | 166 kts | 88° |
| 2026-04-30 15:14 | 52.32511 | 4.90371 | 3426 ft | 239 kts | 88° |
| 2026-04-30 15:14 | 52.33042 | 4.99145 | 5303 ft | 274 kts | 88° |
| 2026-04-30 15:16 | 52.34061 | 5.15223 | 9509 ft | 300 kts | 88° |
| 2026-04-30 15:17 | 52.32304 | 5.28319 | 12355 ft | 330 kts | 136° |
| 2026-04-30 15:18 | 52.23427 | 5.43041 | 15894 ft | 382 kts | 139° |
| 2026-04-30 15:19 | 52.17781 | 5.52542 | 18146 ft | 400 kts | 140° |